createdAt,value
2023-03-26T00:00:11.227Z,28.63
2023-03-26T00:02:44.548Z,28.66
2023-03-26T00:05:16.078Z,28.70
2023-03-26T00:07:46.169Z,28.74
2023-03-26T00:10:17.287Z,28.78
2023-03-26T00:12:50.660Z,28.83
2023-03-26T00:15:20.749Z,28.87
2023-03-26T00:17:51.866Z,28.91
2023-03-26T00:20:22.765Z,28.94
2023-03-26T00:22:52.931Z,28.98
2023-03-26T00:25:26.347Z,28.99
2023-03-26T00:27:56.443Z,29.03
2023-03-26T00:30:26.673Z,29.04
2023-03-26T00:32:57.475Z,29.06
2023-03-26T00:35:28.353Z,29.10
2023-03-26T00:37:59.906Z,29.12
2023-03-26T00:40:31.431Z,29.17
2023-03-26T00:43:01.511Z,29.16
2023-03-26T00:45:32.314Z,29.10
2023-03-26T00:48:02.820Z,29.11
2023-03-26T00:50:33.068Z,29.16
2023-03-26T00:53:04.503Z,29.19
2023-03-26T00:55:35.876Z,29.22
2023-03-26T00:58:07.055Z,29.25
2023-03-26T01:00:38.161Z,29.30
2023-03-26T01:03:08.468Z,29.34
2023-03-26T01:05:50.529Z,29.39
2023-03-26T01:08:28.746Z,29.46
2023-03-26T01:11:06.718Z,29.49
2023-03-26T01:13:38.901Z,29.54
2023-03-26T01:16:11.345Z,29.55
2023-03-26T01:18:44.674Z,29.56
2023-03-26T01:21:15.918Z,29.60
2023-03-26T01:23:48.377Z,29.62
2023-03-26T01:26:24.759Z,29.66
2023-03-26T01:28:57.757Z,29.68
2023-03-26T01:31:38.654Z,29.68
2023-03-26T01:34:13.802Z,29.72
2023-03-26T01:36:57.452Z,29.74
2023-03-26T01:39:33.612Z,29.78
2023-03-26T01:42:10.909Z,29.82
2023-03-26T01:44:46.340Z,29.86
2023-03-26T01:47:18.007Z,29.89
2023-03-26T01:49:48.049Z,29.97
2023-03-26T01:52:21.348Z,30.03
2023-03-26T01:54:51.753Z,30.08
2023-03-26T01:57:22.081Z,30.13
2023-03-26T02:00:00.280Z,30.16
2023-03-26T02:02:49.111Z,30.19
2023-03-26T02:05:25.960Z,30.23
2023-03-26T02:07:59.933Z,30.23
2023-03-26T02:10:31.929Z,30.26
2023-03-26T02:13:03.291Z,30.26
2023-03-26T02:15:34.887Z,30.31
2023-03-26T02:18:05.570Z,30.33
2023-03-26T02:20:36.383Z,30.36
2023-03-26T02:23:07.210Z,30.37
2023-03-26T02:25:41.354Z,30.41
2023-03-26T02:28:12.050Z,30.44
2023-03-26T02:30:44.909Z,30.46
2023-03-26T02:33:16.764Z,30.49
2023-03-26T02:35:47.719Z,30.54
2023-03-26T02:38:20.893Z,30.51
2023-03-26T02:40:51.430Z,30.53
2023-03-26T02:43:23.496Z,30.55
2023-03-26T02:45:54.189Z,30.59
2023-03-26T02:48:56.077Z,30.62
2023-03-26T02:51:28.841Z,30.64
2023-03-26T02:54:08.464Z,30.67
2023-03-26T02:56:44.609Z,30.71
2023-03-26T02:59:26.447Z,30.74
2023-03-26T03:02:19.788Z,30.76
2023-03-26T03:04:50.316Z,30.79
2023-03-26T03:07:21.786Z,30.81
2023-03-26T03:09:52.037Z,30.84
2023-03-26T03:12:54.362Z,30.87
2023-03-26T03:15:24.537Z,30.90
2023-03-26T03:17:54.583Z,30.92
2023-03-26T03:20:25.145Z,30.94
2023-03-26T03:22:55.571Z,30.97
2023-03-26T03:25:27.553Z,30.99
2023-03-26T03:27:58.121Z,31.00
2023-03-26T03:30:28.383Z,31.04
2023-03-26T03:33:22.051Z,31.08
2023-03-26T03:35:53.090Z,31.10
2023-03-26T03:38:23.790Z,31.12
2023-03-26T03:40:56.865Z,31.14
2023-03-26T03:43:30.810Z,31.19
2023-03-26T03:46:09.965Z,31.21
2023-03-26T03:48:49.731Z,31.23
2023-03-26T03:51:25.302Z,31.25
2023-03-26T03:54:28.008Z,31.27
2023-03-26T03:57:11.499Z,31.30
2023-03-26T04:00:01.714Z,31.32
2023-03-26T04:02:47.716Z,31.33
2023-03-26T04:05:18.848Z,31.35
2023-03-26T04:07:52.830Z,31.36
2023-03-26T04:10:29.056Z,31.37
2023-03-26T04:13:08.257Z,31.41
2023-03-26T04:15:54.504Z,31.42
2023-03-26T04:18:25.819Z,31.42
2023-03-26T04:20:57.826Z,31.45
2023-03-26T04:23:33.455Z,31.46
2023-03-26T04:26:14.806Z,31.48
2023-03-26T04:29:06.633Z,31.50
2023-03-26T04:31:39.705Z,31.52
2023-03-26T04:34:16.469Z,31.54
2023-03-26T04:36:55.901Z,31.58
2023-03-26T04:39:35.701Z,31.56
2023-03-26T04:42:26.004Z,31.58
2023-03-26T04:45:08.225Z,31.63
2023-03-26T04:47:38.391Z,31.64
2023-03-26T04:50:10.897Z,31.69
2023-03-26T04:52:45.294Z,31.72
2023-03-26T04:55:23.128Z,31.75
2023-03-26T04:58:11.138Z,31.77
2023-03-26T05:01:10.262Z,31.79
2023-03-26T05:03:47.177Z,31.82
2023-03-26T05:06:19.711Z,31.83
2023-03-26T05:08:49.928Z,31.85
2023-03-26T05:11:38.271Z,31.87
2023-03-26T05:14:08.882Z,31.79
2023-03-26T05:16:40.823Z,31.70
2023-03-26T05:19:12.119Z,31.51
2023-03-26T05:21:42.234Z,31.28
2023-03-26T05:24:12.694Z,31.04
2023-03-26T05:26:43.321Z,30.82
2023-03-26T05:29:13.936Z,30.70
2023-03-26T05:31:50.193Z,30.59
2023-03-26T05:34:22.015Z,30.45
2023-03-26T05:36:53.161Z,30.38
2023-03-26T05:39:47.653Z,30.29
2023-03-26T05:42:50.470Z,30.22
2023-03-26T05:45:52.584Z,30.11
2023-03-26T05:48:30.650Z,30.03
2023-03-26T05:51:01.733Z,30.00
2023-03-26T05:53:33.912Z,29.94
2023-03-26T05:56:22.647Z,29.91
2023-03-26T05:59:11.911Z,29.88
2023-03-26T06:02:05.233Z,29.83
2023-03-26T06:05:07.474Z,29.80
2023-03-26T06:08:09.824Z,29.77
2023-03-26T06:10:41.687Z,29.76
2023-03-26T06:13:11.976Z,29.75
2023-03-26T06:15:44.321Z,29.75
2023-03-26T06:18:34.171Z,29.73
2023-03-26T06:21:22.500Z,29.73
2023-03-26T06:24:24.961Z,29.87
2023-03-26T06:27:26.855Z,29.98
2023-03-26T06:30:35.047Z,30.05
2023-03-26T06:33:11.234Z,30.08
2023-03-26T06:35:48.306Z,30.11
2023-03-26T06:38:19.696Z,30.17
2023-03-26T06:40:50.603Z,30.17
2023-03-26T06:43:29.622Z,30.23
2023-03-26T06:46:15.931Z,30.22
2023-03-26T06:48:57.819Z,30.26
2023-03-26T06:51:47.871Z,30.32
2023-03-26T06:54:36.121Z,30.32
2023-03-26T06:57:15.126Z,30.36
2023-03-26T07:00:20.923Z,30.43
2023-03-26T07:03:09.994Z,30.44
2023-03-26T07:05:58.652Z,30.48
2023-03-26T07:09:01.150Z,30.54
2023-03-26T07:11:49.793Z,30.53
2023-03-26T07:14:40.333Z,30.56
2023-03-26T07:17:28.751Z,30.62
2023-03-26T07:20:15.526Z,30.86
2023-03-26T07:22:46.169Z,31.16
2023-03-26T07:25:20.395Z,31.42
2023-03-26T07:28:26.008Z,31.66
2023-03-26T07:31:36.426Z,31.90
2023-03-26T07:34:32.788Z,32.10
2023-03-26T07:37:24.298Z,32.25
2023-03-26T07:40:23.036Z,32.41
2023-03-26T07:43:24.127Z,32.57
2023-03-26T07:46:33.794Z,32.73
2023-03-26T07:49:24.281Z,32.87
2023-03-26T07:52:23.922Z,33.01
2023-03-26T07:55:21.501Z,33.13
2023-03-26T07:58:42.344Z,33.26
2023-03-26T08:01:41.352Z,33.37
2023-03-26T08:04:23.233Z,33.49
2023-03-26T08:07:09.507Z,33.59
2023-03-26T08:10:09.976Z,33.69
2023-03-26T08:13:19.401Z,33.80
2023-03-26T08:15:54.897Z,33.90
2023-03-26T08:18:28.604Z,33.99
2023-03-26T08:21:02.308Z,34.07
2023-03-26T08:23:50.925Z,34.14
2023-03-26T08:26:30.919Z,34.24
2023-03-26T08:29:23.828Z,34.34
2023-03-26T08:31:54.749Z,34.43
2023-03-26T08:34:25.375Z,34.50
2023-03-26T08:36:55.596Z,34.57
2023-03-26T08:39:26.482Z,34.64
2023-03-26T08:42:02.955Z,34.72
2023-03-26T08:44:51.741Z,34.80
2023-03-26T08:47:36.010Z,34.87
2023-03-26T08:50:24.182Z,34.94
2023-03-26T08:53:13.036Z,35.01
2023-03-26T08:55:51.348Z,35.08
2023-03-26T08:58:24.465Z,35.18
2023-03-26T09:01:00.879Z,35.23
2023-03-26T09:03:33.819Z,35.29
2023-03-26T09:06:23.630Z,35.36
2023-03-26T09:09:19.245Z,35.44
2023-03-26T09:11:58.731Z,35.50
2023-03-26T09:14:47.090Z,35.54
2023-03-26T09:17:29.348Z,35.64
2023-03-26T09:20:10.239Z,35.71
2023-03-26T09:22:52.632Z,35.76
2023-03-26T09:25:45.642Z,35.82
2023-03-26T09:28:32.390Z,35.86
2023-03-26T09:31:35.124Z,35.92
2023-03-26T09:34:23.487Z,35.97
2023-03-26T09:37:07.543Z,36.01
2023-03-26T09:39:58.496Z,36.03
2023-03-26T09:42:39.476Z,36.08
2023-03-26T09:45:40.680Z,36.10
2023-03-26T09:48:26.068Z,36.11
2023-03-26T09:51:06.093Z,36.12
2023-03-26T09:53:47.144Z,36.13
2023-03-26T09:56:38.466Z,36.17
2023-03-26T09:59:22.952Z,36.18
2023-03-26T10:02:45.437Z,36.19
2023-03-26T10:05:40.667Z,36.19
2023-03-26T10:08:37.930Z,36.20
2023-03-26T10:11:26.528Z,36.20
2023-03-26T10:13:57.161Z,36.20
2023-03-26T10:16:55.617Z,36.21
2023-03-26T10:19:43.708Z,36.21
2023-03-26T10:22:34.349Z,36.18
2023-03-26T10:25:28.617Z,36.18
2023-03-26T10:27:58.822Z,36.18
2023-03-26T10:30:42.772Z,36.16
2023-03-26T10:33:18.597Z,36.14
2023-03-26T10:36:05.935Z,36.13
2023-03-26T10:38:59.881Z,36.12
2023-03-26T10:41:52.224Z,36.08
2023-03-26T10:44:28.922Z,36.03
2023-03-26T10:47:30.423Z,36.00
2023-03-26T10:50:10.966Z,35.95
2023-03-26T10:52:48.848Z,35.92
2023-03-26T10:55:25.562Z,35.89
2023-03-26T10:57:58.711Z,35.85
2023-03-26T11:00:34.927Z,35.83
2023-03-26T11:03:11.264Z,35.78
2023-03-26T11:05:50.603Z,35.75
2023-03-26T11:08:31.155Z,35.72
2023-03-26T11:11:19.945Z,35.68
2023-03-26T11:14:21.344Z,35.63
2023-03-26T11:17:04.336Z,35.58
2023-03-26T11:19:53.228Z,35.53
2023-03-26T11:22:41.956Z,35.49
2023-03-26T11:25:12.558Z,35.46
2023-03-26T11:28:00.142Z,35.40
2023-03-26T11:30:37.067Z,35.37
2023-03-26T11:33:09.940Z,35.33
2023-03-26T11:35:43.493Z,35.31
2023-03-26T11:38:25.781Z,35.28
2023-03-26T11:40:58.403Z,35.25
2023-03-26T11:43:51.172Z,35.14
2023-03-26T11:46:23.856Z,35.14
2023-03-26T11:48:59.069Z,35.16
2023-03-26T11:51:32.985Z,35.17
2023-03-26T11:54:04.560Z,35.10
2023-03-26T11:57:05.914Z,35.09
2023-03-26T11:59:57.518Z,35.02
2023-03-26T12:02:30.558Z,34.99
2023-03-26T12:05:27.880Z,34.98
2023-03-26T12:07:59.436Z,34.94
2023-03-26T12:10:29.511Z,34.90
2023-03-26T12:13:01.978Z,34.86
2023-03-26T12:15:33.675Z,34.84
2023-03-26T12:18:21.569Z,34.80
2023-03-26T12:21:03.403Z,34.72
2023-03-26T12:23:44.978Z,34.69
2023-03-26T12:26:35.448Z,34.65
2023-03-26T12:29:16.097Z,34.62
2023-03-26T12:32:04.390Z,34.61
2023-03-26T12:34:37.659Z,34.54
2023-03-26T12:37:08.826Z,34.53
2023-03-26T12:40:07.770Z,34.48
2023-03-26T12:44:53.356Z,34.47
2023-03-26T12:45:30.534Z,34.41
2023-03-26T12:48:04.288Z,34.34
2023-03-26T12:50:48.999Z,34.28
2023-03-26T12:53:27.995Z,34.22
2023-03-26T12:56:01.949Z,34.18
2023-03-26T12:58:41.141Z,34.13
2023-03-26T13:01:30.146Z,34.09
2023-03-26T13:04:00.277Z,34.03
2023-03-26T13:06:30.647Z,34.01
2023-03-26T13:09:11.235Z,33.81
2023-03-26T13:11:54.233Z,33.62
2023-03-26T13:14:30.293Z,33.43
2023-03-26T13:17:10.885Z,33.31
2023-03-26T13:19:48.208Z,33.22
2023-03-26T13:22:27.832Z,33.15
2023-03-26T13:25:05.594Z,33.08
2023-03-26T13:27:41.498Z,33.04
2023-03-26T13:30:23.167Z,32.97
2023-03-26T13:33:11.787Z,32.96
2023-03-26T13:35:49.389Z,32.90
2023-03-26T13:38:22.588Z,32.88
2023-03-26T13:40:55.896Z,32.87
2023-03-26T13:43:33.101Z,32.75
2023-03-26T13:46:21.515Z,32.53
2023-03-26T13:49:06.211Z,32.28
2023-03-26T13:51:51.932Z,32.05
2023-03-26T13:54:39.251Z,31.93
2023-03-26T13:57:31.362Z,31.75
2023-03-26T14:00:07.789Z,31.60
2023-03-26T14:02:43.198Z,31.45
2023-03-26T14:05:24.069Z,30.81
2023-03-26T14:08:00.941Z,31.15
2023-03-26T14:10:46.071Z,31.05
2023-03-26T14:13:31.296Z,30.96
2023-03-26T14:16:06.103Z,30.86
2023-03-26T14:18:47.469Z,30.78
2023-03-26T14:21:34.906Z,30.68
2023-03-26T14:24:23.260Z,30.60
2023-03-26T14:27:07.066Z,30.53
2023-03-26T14:30:16.391Z,30.47
2023-03-26T14:33:05.862Z,30.35
2023-03-26T14:35:49.397Z,30.32
2023-03-26T14:38:43.231Z,30.20
2023-03-26T14:41:37.639Z,30.17
2023-03-26T14:44:08.220Z,30.12
2023-03-26T14:46:51.647Z,30.06
2023-03-26T14:49:28.069Z,30.00
2023-03-26T14:52:05.514Z,29.95
2023-03-26T14:54:37.250Z,29.90
2023-03-26T14:57:26.189Z,29.87
2023-03-26T15:00:17.278Z,29.79
2023-03-26T15:03:03.627Z,29.76
2023-03-26T15:06:03.353Z,29.71
2023-03-26T15:08:50.427Z,29.70
2023-03-26T15:11:44.964Z,29.67
2023-03-26T15:14:33.108Z,29.62
2023-03-26T15:17:12.374Z,29.57
2023-03-26T15:19:48.355Z,29.69
2023-03-26T15:22:30.388Z,29.69
2023-03-26T15:25:20.809Z,29.70
2023-03-26T15:28:09.742Z,29.66
2023-03-26T15:30:49.969Z,29.67
2023-03-26T15:33:38.211Z,29.67
2023-03-26T15:36:34.837Z,29.63
2023-03-26T15:39:19.931Z,29.61
2023-03-26T15:41:58.593Z,29.57
2023-03-26T15:44:47.212Z,29.54
2023-03-26T15:47:41.712Z,29.47
2023-03-26T15:50:30.896Z,29.42
2023-03-26T15:53:04.618Z,29.43
2023-03-26T15:55:54.408Z,29.38
2023-03-26T15:58:32.150Z,29.33
2023-03-26T16:01:22.559Z,29.28
2023-03-26T16:03:52.878Z,29.27
2023-03-26T16:06:32.372Z,29.26
2023-03-26T16:09:09.434Z,29.26
2023-03-26T16:11:52.546Z,29.25
2023-03-26T16:14:25.916Z,29.26
2023-03-26T16:16:57.666Z,29.33
2023-03-26T16:19:34.050Z,29.30
2023-03-26T16:22:15.961Z,29.33
2023-03-26T16:25:26.760Z,29.37
2023-03-26T16:28:24.604Z,29.36
2023-03-26T16:31:23.578Z,29.46
2023-03-26T16:34:10.472Z,29.50
2023-03-26T16:36:44.299Z,29.54
2023-03-26T16:39:24.268Z,29.56
2023-03-26T16:42:06.204Z,29.55
2023-03-26T16:44:51.324Z,29.55
2023-03-26T16:47:35.370Z,29.53
2023-03-26T16:50:09.036Z,29.53
2023-03-26T16:53:05.783Z,29.51
2023-03-26T16:55:42.495Z,29.50
2023-03-26T16:58:32.974Z,29.47
2023-03-26T17:01:22.674Z,29.44
2023-03-26T17:03:58.723Z,29.38
2023-03-26T17:06:47.832Z,29.37
2023-03-26T17:09:23.419Z,29.38
2023-03-26T17:11:53.409Z,29.36
2023-03-26T17:14:35.497Z,29.34
2023-03-26T17:17:05.611Z,29.33
2023-03-26T17:19:59.363Z,29.30
2023-03-26T17:22:29.550Z,29.27
2023-03-26T17:25:06.734Z,29.29
2023-03-26T17:28:19.064Z,29.28
2023-03-26T17:31:06.170Z,29.28
2023-03-26T17:33:40.439Z,29.31
2023-03-26T17:36:13.965Z,29.30
2023-03-26T17:38:49.903Z,29.31
2023-03-26T17:41:38.851Z,29.26
2023-03-26T17:44:28.880Z,29.28
2023-03-26T17:46:59.565Z,29.25
2023-03-26T17:49:33.309Z,29.22
2023-03-26T17:52:03.753Z,29.20
2023-03-26T17:54:36.866Z,29.20
2023-03-26T17:57:26.288Z,29.19
2023-03-26T18:00:00.758Z,29.19
2023-03-26T18:02:43.962Z,29.17
2023-03-26T18:05:16.425Z,29.17
2023-03-26T18:08:04.956Z,29.16
2023-03-26T18:10:36.594Z,29.13
2023-03-26T18:13:07.701Z,29.11
2023-03-26T18:15:37.765Z,29.11
2023-03-26T18:18:11.094Z,29.10
2023-03-26T18:20:44.221Z,29.10
2023-03-26T18:23:22.817Z,29.09
2023-03-26T18:26:00.027Z,29.08
2023-03-26T18:28:37.008Z,29.06
2023-03-26T18:31:25.769Z,29.07
2023-03-26T18:33:57.353Z,28.85
2023-03-26T18:36:29.138Z,29.04
2023-03-26T18:39:02.915Z,29.05
2023-03-26T18:41:34.601Z,29.04
2023-03-26T18:44:07.343Z,29.03
2023-03-26T18:46:38.073Z,29.03
2023-03-26T18:49:09.009Z,29.01
2023-03-26T18:51:50.145Z,29.00
2023-03-26T18:54:27.704Z,28.97
2023-03-26T18:57:00.290Z,28.96
2023-03-26T18:59:33.890Z,28.94
2023-03-26T19:02:33.603Z,28.93
2023-03-26T19:05:42.933Z,28.95
2023-03-26T19:08:46.516Z,28.92
2023-03-26T19:11:18.354Z,28.92
2023-03-26T19:13:52.405Z,28.89
2023-03-26T19:16:26.990Z,28.84
2023-03-26T19:19:00.268Z,28.81
2023-03-26T19:21:30.528Z,28.79
2023-03-26T19:24:00.712Z,28.75
2023-03-26T19:26:31.770Z,28.72
2023-03-26T19:29:02.340Z,28.70
2023-03-26T19:31:36.689Z,28.69
2023-03-26T19:34:16.328Z,28.68
2023-03-26T19:37:04.234Z,28.66
2023-03-26T19:39:44.067Z,28.63
2023-03-26T19:42:15.949Z,28.61
2023-03-26T19:44:46.817Z,28.58
2023-03-26T19:47:32.133Z,28.60
2023-03-26T19:50:26.780Z,28.60
2023-03-26T19:53:16.716Z,28.61
2023-03-26T19:55:58.784Z,28.59
2023-03-26T19:58:34.348Z,28.52
2023-03-26T20:01:05.489Z,28.51
2023-03-26T20:03:41.110Z,28.49
2023-03-26T20:06:15.447Z,28.46
2023-03-26T20:08:45.604Z,28.45
2023-03-26T20:11:21.701Z,28.42
2023-03-26T20:13:52.628Z,28.43
2023-03-26T20:16:33.280Z,28.42
2023-03-26T20:19:06.154Z,28.41
2023-03-26T20:21:36.714Z,28.41
2023-03-26T20:24:12.439Z,28.38
2023-03-26T20:26:42.526Z,28.35
2023-03-26T20:29:13.129Z,28.31
2023-03-26T20:31:43.818Z,28.30
2023-03-26T20:34:18.728Z,28.29
2023-03-26T20:36:55.557Z,28.28
2023-03-26T20:39:26.658Z,28.28
2023-03-26T20:41:57.715Z,28.24
2023-03-26T20:44:28.649Z,28.26
2023-03-26T20:47:00.304Z,28.26
2023-03-26T20:49:30.782Z,28.20
2023-03-26T20:52:03.604Z,28.17
2023-03-26T20:54:33.992Z,28.14
2023-03-26T20:57:04.167Z,28.16
2023-03-26T20:59:35.975Z,28.17
2023-03-26T21:02:06.370Z,28.19
2023-03-26T21:04:36.614Z,28.17
2023-03-26T21:07:17.720Z,28.15
2023-03-26T21:09:50.157Z,28.15
2023-03-26T21:12:28.898Z,28.14
2023-03-26T21:14:59.601Z,28.12
2023-03-26T21:17:29.932Z,28.12
2023-03-26T21:20:10.305Z,28.10
2023-03-26T21:22:59.800Z,28.09
2023-03-26T21:25:37.274Z,28.09
2023-03-26T21:28:16.191Z,28.07
2023-03-26T21:30:46.356Z,28.05
2023-03-26T21:33:16.444Z,28.06
2023-03-26T21:35:53.327Z,28.05
2023-03-26T21:38:23.928Z,28.02
2023-03-26T21:40:58.917Z,28.02
2023-03-26T21:43:29.176Z,28.01
2023-03-26T21:46:00.125Z,28.00
2023-03-26T21:48:30.864Z,27.99
2023-03-26T21:51:04.923Z,28.00
2023-03-26T21:53:36.734Z,28.01
2023-03-26T21:56:16.108Z,28.01
2023-03-26T21:58:49.660Z,27.78
2023-03-26T22:01:30.735Z,27.73
2023-03-26T22:04:23.362Z,28.01
2023-03-26T22:06:53.465Z,27.97
2023-03-26T22:09:33.980Z,27.94
2023-03-26T22:12:07.194Z,27.96
2023-03-26T22:14:37.346Z,27.97
2023-03-26T22:17:07.958Z,27.99
2023-03-26T22:19:38.360Z,27.99
2023-03-26T22:22:08.424Z,27.98
2023-03-26T22:24:38.928Z,27.97
2023-03-26T22:27:09.784Z,27.99
2023-03-26T22:29:39.879Z,27.97
2023-03-26T22:32:10.829Z,27.94
2023-03-26T22:34:42.790Z,27.95
2023-03-26T22:37:12.853Z,27.95
2023-03-26T22:39:43.059Z,27.95
2023-03-26T22:42:13.228Z,27.92
2023-03-26T22:44:43.296Z,27.92
2023-03-26T22:47:14.962Z,27.94
2023-03-26T22:49:45.489Z,27.88
2023-03-26T22:52:15.596Z,27.89
2023-03-26T22:54:45.635Z,27.88
2023-03-26T22:57:16.522Z,27.87
2023-03-26T22:59:46.742Z,27.87
2023-03-26T23:02:18.006Z,27.88
2023-03-26T23:04:49.168Z,28.00
2023-03-26T23:07:19.551Z,28.09
2023-03-26T23:09:49.754Z,28.17
2023-03-26T23:12:19.803Z,28.26
2023-03-26T23:14:54.252Z,28.34
2023-03-26T23:17:25.479Z,28.41
2023-03-26T23:19:55.940Z,28.46
2023-03-26T23:22:26.050Z,28.52
2023-03-26T23:24:56.040Z,28.60
2023-03-26T23:27:26.065Z,28.64
2023-03-26T23:29:56.847Z,28.71
2023-03-26T23:32:27.464Z,28.75
2023-03-26T23:34:57.526Z,28.80
2023-03-26T23:37:27.594Z,28.85
2023-03-26T23:39:57.973Z,28.89
2023-03-26T23:42:29.774Z,28.94
2023-03-26T23:45:00.179Z,29.01
2023-03-26T23:47:35.641Z,29.12
2023-03-26T23:50:06.484Z,29.20
2023-03-26T23:52:39.085Z,29.30
2023-03-26T23:55:09.676Z,29.39
2023-03-26T23:57:39.844Z,29.48
